Time;durP1;ratioP1;P1;durP2;ratioP2;P2;SDS_P1;SDS_P2;PMS_P1;PMS_P2;Temp;Humidity;BMP_temperature;BMP_pressure;BME280_temperature;BME280_humidity;BME280_pressure;Samples;Min_cycle;Max_cycle;Signal;HPM_P1;HPM_P2
2022/11/19 00:01:13;;;;;;;7.53;3.88;;;1.20;99.90;;;;;;5075281;28;20058;-83
2022/11/19 00:03:40;;;;;;;4.85;3.78;;;1.20;99.90;;;;;;5079663;28;20458;-83
2022/11/19 00:06:09;;;;;;;4.20;3.40;;;1.10;99.90;;;;;;5069493;28;20043;-85
2022/11/19 00:08:35;;;;;;;6.03;3.67;;;1.10;99.90;;;;;;5065771;28;20036;-81
2022/11/19 00:11:13;;;;;;;4.20;3.65;;;1.00;99.90;;;;;;5079705;28;20040;-83
2022/11/19 00:13:40;;;;;;;4.90;3.92;;;1.00;99.90;;;;;;5079136;28;20501;-82
2022/11/19 00:16:13;;;;;;;7.93;4.10;;;1.00;99.90;;;;;;5064059;28;20507;-81
2022/11/19 00:18:40;;;;;;;5.20;3.33;;;0.90;99.90;;;;;;5104073;28;20046;-82
2022/11/19 00:21:09;;;;;;;5.10;3.40;;;0.90;99.90;;;;;;5100361;28;20044;-82
2022/11/19 00:23:36;;;;;;;5.03;3.90;;;0.80;99.90;;;;;;5100375;28;20065;-83
2022/11/19 00:26:05;;;;;;;4.85;3.90;;;0.70;99.90;;;;;;5099822;28;20044;-84
2022/11/19 00:28:31;;;;;;;4.65;3.70;;;0.70;99.90;;;;;;5119430;27;20032;-83
2022/11/19 00:31:02;;;;;;;5.45;3.72;;;0.60;99.90;;;;;;5090830;28;20040;-84
2022/11/19 00:33:28;;;;;;;4.28;3.38;;;0.60;99.90;;;;;;5085910;28;20047;-81
2022/11/19 00:35:56;;;;;;;4.60;3.50;;;0.60;99.90;;;;;;5084548;28;20043;-81
2022/11/19 00:38:22;;;;;;;5.88;3.95;;;0.60;99.90;;;;;;5088975;28;20040;-84
2022/11/19 00:40:47;;;;;;;5.95;4.22;;;0.50;99.90;;;;;;5086102;28;20964;-83
2022/11/19 00:45:57;;;;;;;5.47;4.20;;;0.50;99.90;;;;;;5080188;28;20036;-83
2022/11/19 00:48:23;;;;;;;7.22;3.95;;;0.40;99.90;;;;;;5081685;28;20105;-84
2022/11/19 00:50:49;;;;;;;4.82;4.00;;;0.40;99.90;;;;;;5064581;28;20051;-82
2022/11/19 00:53:14;;;;;;;7.05;4.00;;;0.40;99.90;;;;;;5079338;28;20051;-83
2022/11/19 00:55:40;;;;;;;5.63;4.75;;;0.30;99.90;;;;;;5065710;28;20083;-84
2022/11/19 00:58:06;;;;;;;5.65;4.30;;;0.30;99.90;;;;;;5077099;28;20076;-83
2022/11/19 01:00:32;;;;;;;6.13;3.80;;;0.30;99.90;;;;;;5068270;28;20039;-83
2022/11/19 01:02:59;;;;;;;5.93;4.18;;;0.30;99.90;;;;;;5083000;28;20047;-82
2022/11/19 01:05:25;;;;;;;5.75;4.32;;;0.20;99.90;;;;;;5061363;28;20912;-82
2022/11/19 01:07:52;;;;;;;5.78;4.30;;;0.20;99.90;;;;;;5082835;28;20043;-83
2022/11/19 01:10:17;;;;;;;6.97;4.32;;;0.20;99.90;;;;;;5063625;28;20114;-82
2022/11/19 01:15:28;;;;;;;7.10;4.25;;;0.10;99.90;;;;;;5078950;28;20037;-82
2022/11/19 01:17:53;;;;;;;8.23;4.90;;;0.10;99.90;;;;;;5066903;28;20031;-82
2022/11/19 01:20:19;;;;;;;5.65;4.50;;;0.20;99.90;;;;;;5070871;28;20065;-86
2022/11/19 01:22:45;;;;;;;6.10;4.75;;;0.10;99.90;;;;;;5068581;28;20036;-82
2022/11/19 01:25:11;;;;;;;8.23;5.18;;;0.00;99.90;;;;;;5089688;28;20040;-81
2022/11/19 01:27:37;;;;;;;5.95;4.45;;;0.00;99.90;;;;;;5085570;28;20146;-84
2022/11/19 01:30:04;;;;;;;5.80;4.35;;;0.00;99.90;;;;;;5083096;28;20130;-83
2022/11/19 01:32:29;;;;;;;7.10;4.13;;;0.00;99.90;;;;;;5058074;28;20079;-81
2022/11/19 01:34:55;;;;;;;7.88;4.80;;;0.10;99.90;;;;;;5083101;28;20116;-83
2022/11/19 01:37:21;;;;;;;6.32;4.78;;;0.00;99.90;;;;;;5080307;28;20388;-85
2022/11/19 01:40:09;;;;;;;8.05;4.80;;;0.10;99.90;;;;;;5083681;28;20044;-81
2022/11/19 01:42:49;;;;;;;4.78;3.58;;;0.00;99.90;;;;;;5068051;28;20071;-81
2022/11/19 01:45:27;;;;;;;7.88;5.05;;;0.00;99.90;;;;;;5083750;28;20424;-83
2022/11/19 01:47:57;;;;;;;8.10;5.18;;;0.00;99.90;;;;;;5109856;27;20055;-83
2022/11/19 01:50:24;;;;;;;6.90;4.90;;;0.00;99.90;;;;;;5072657;28;20063;-81
2022/11/19 01:53:45;;;;;;;5.70;4.68;;;-0.10;99.90;;;;;;5073925;28;20354;-86
2022/11/19 01:56:12;;;;;;;6.82;5.03;;;0.00;99.90;;;;;;5066975;28;20127;-83
2022/11/19 01:58:46;;;;;;;8.52;5.63;;;-0.10;99.90;;;;;;5102460;28;20062;-85
2022/11/19 02:01:13;;;;;;;14.68;5.35;;;-0.20;99.90;;;;;;5115848;27;20547;-85
2022/11/19 02:03:39;;;;;;;5.97;4.60;;;-0.10;99.90;;;;;;5067196;28;20043;-81
2022/11/19 02:06:06;;;;;;;9.23;5.63;;;-0.20;99.90;;;;;;5094410;28;20040;-83
2022/11/19 02:08:43;;;;;;;8.13;5.47;;;-0.10;99.90;;;;;;5079857;28;20039;-82
2022/11/19 02:11:40;;;;;;;7.43;5.40;;;-0.20;99.90;;;;;;5067476;28;20036;-83
2022/11/19 02:14:14;;;;;;;7.35;5.15;;;-0.20;99.90;;;;;;5083656;28;20047;-85
2022/11/19 02:17:17;;;;;;;5.78;3.75;;;-0.20;99.90;;;;;;5064550;28;20036;-83
2022/11/19 02:20:05;;;;;;;7.60;5.65;;;-0.20;99.90;;;;;;5067363;28;20040;-86
2022/11/19 02:22:55;;;;;;;8.02;5.63;;;-0.20;99.90;;;;;;5100680;28;20631;-82
2022/11/19 02:25:55;;;;;;;8.25;5.50;;;-0.30;99.90;;;;;;5084308;28;20076;-82
2022/11/19 02:28:37;;;;;;;7.70;5.32;;;-0.40;99.90;;;;;;5084214;28;20040;-84
2022/11/19 02:31:10;;;;;;;8.77;5.35;;;-0.50;99.90;;;;;;5068591;28;20037;-82
2022/11/19 02:34:04;;;;;;;7.95;5.30;;;-0.40;99.90;;;;;;5081358;28;20047;-84
2022/11/19 02:36:56;;;;;;;8.15;5.20;;;-0.50;99.90;;;;;;5066290;28;20044;-80
2022/11/19 02:40:05;;;;;;;8.30;5.45;;;-0.50;99.90;;;;;;5100386;28;20067;-84
2022/11/19 02:42:45;;;;;;;7.45;5.63;;;-0.50;99.90;;;;;;5079757;28;20047;-85
2022/11/19 02:45:22;;;;;;;8.75;6.05;;;-0.60;99.90;;;;;;5066929;28;20530;-82
2022/11/19 02:48:03;;;;;;;8.02;6.07;;;-0.70;99.90;;;;;;5083584;28;20044;-81
2022/11/19 02:50:34;;;;;;;8.93;6.35;;;-0.70;99.90;;;;;;5085895;28;20062;-86
2022/11/19 02:53:20;;;;;;;7.90;6.00;;;-0.80;99.90;;;;;;5103595;27;20044;-84
2022/11/19 02:56:09;;;;;;;;;;;-0.80;99.90;;;;;;5067817;28;20058;-82
2022/11/19 03:06:55;;;;;;;8.32;5.70;;;-1.00;99.90;;;;;;5087638;28;20048;-83
2022/11/19 03:09:21;;;;;;;8.48;6.30;;;-0.90;99.90;;;;;;5119394;27;20177;-84
2022/11/19 03:12:00;;;;;;;10.05;6.28;;;-0.90;99.90;;;;;;5066675;28;20028;-83
2022/11/19 03:17:28;;;;;;;8.20;6.05;;;-1.00;99.90;;;;;;5121611;27;20048;-83
2022/11/19 03:20:06;;;;;;;8.13;5.50;;;-1.00;99.90;;;;;;5081266;28;20035;-84
2022/11/19 03:22:59;;;;;;;8.48;6.22;;;-1.00;99.90;;;;;;5072562;28;20462;-83
2022/11/19 03:25:29;;;;;;;9.50;5.93;;;-1.10;99.90;;;;;;5080299;28;20409;-81
2022/11/19 03:28:01;;;;;;;13.50;5.55;;;-1.10;99.90;;;;;;5084145;28;20072;-82
2022/11/19 03:30:29;;;;;;;8.20;5.57;;;-1.00;99.90;;;;;;5084648;28;20153;-82
2022/11/19 03:33:00;;;;;;;9.85;4.93;;;-1.00;99.90;;;;;;5120222;27;20510;-82
2022/11/19 03:35:34;;;;;;;7.95;5.88;;;-0.90;99.90;;;;;;5113863;27;20043;-82
2022/11/19 03:38:05;;;;;;;8.48;6.05;;;-1.00;99.90;;;;;;5072771;28;20028;-84
2022/11/19 03:40:33;;;;;;;8.85;5.82;;;-1.10;99.90;;;;;;5066931;28;20039;-85
2022/11/19 03:43:02;;;;;;;8.10;5.70;;;-1.10;99.90;;;;;;5098862;28;20069;-83
2022/11/19 03:45:33;;;;;;;8.57;6.07;;;-1.00;99.90;;;;;;5086281;28;20131;-82
2022/11/19 03:48:01;;;;;;;16.38;6.03;;;-1.20;99.90;;;;;;5080555;28;20383;-82
2022/11/19 03:50:51;;;;;;;8.90;5.60;;;-1.20;99.90;;;;;;5101916;28;20071;-84
2022/11/19 03:53:18;;;;;;;7.68;5.43;;;-0.90;99.90;;;;;;5071931;28;20039;-81
2022/11/19 03:55:54;;;;;;;7.72;5.40;;;-1.10;99.90;;;;;;5083706;28;20063;-83
2022/11/19 03:58:24;;;;;;;9.10;6.53;;;-1.10;99.90;;;;;;5083035;28;20032;-84
2022/11/19 04:00:49;;;;;;;9.40;5.65;;;-1.20;99.90;;;;;;5089886;28;20036;-83
2022/11/19 04:03:15;;;;;;;10.93;5.50;;;-1.20;99.90;;;;;;5071902;28;20517;-83
2022/11/19 04:05:42;;;;;;;7.05;5.38;;;-1.20;99.90;;;;;;5069855;28;20442;-84
2022/11/19 04:08:08;;;;;;;8.90;5.68;;;-1.20;99.90;;;;;;5070607;28;20439;-84
2022/11/19 04:10:52;;;;;;;8.52;5.47;;;-1.30;99.90;;;;;;5102485;28;20040;-81
2022/11/19 04:13:18;;;;;;;8.98;5.75;;;-1.30;99.90;;;;;;5120437;27;20047;-83
2022/11/19 04:15:44;;;;;;;8.50;5.80;;;-1.30;99.90;;;;;;5085253;28;20043;-82
2022/11/19 04:18:09;;;;;;;8.80;5.80;;;-1.30;99.90;;;;;;5086999;28;20036;-82
2022/11/19 04:20:35;;;;;;;7.82;5.88;;;-1.40;99.90;;;;;;5090109;28;20036;-83
2022/11/19 04:23:01;;;;;;;8.90;5.90;;;-1.50;99.90;;;;;;5117379;27;20040;-83
2022/11/19 04:25:26;;;;;;;8.38;5.85;;;-1.50;99.90;;;;;;5087602;28;20082;-82
2022/11/19 04:27:53;;;;;;;8.73;6.43;;;-1.50;99.90;;;;;;5124339;27;20046;-81
2022/11/19 04:30:19;;;;;;;8.65;6.05;;;-1.40;99.90;;;;;;5091597;28;20055;-82
2022/11/19 04:32:45;;;;;;;8.38;6.35;;;-1.50;99.90;;;;;;5092056;28;20108;-83
2022/11/19 04:35:12;;;;;;;8.70;6.03;;;-1.50;99.90;;;;;;5091877;28;20032;-82
2022/11/19 04:37:38;;;;;;;8.48;6.03;;;-1.50;99.90;;;;;;5085848;28;20103;-84
2022/11/19 04:40:04;;;;;;;11.70;6.70;;;-1.50;99.90;;;;;;5085921;28;20542;-82
2022/11/19 04:42:30;;;;;;;7.63;5.55;;;-1.60;99.90;;;;;;5086224;28;20105;-82
2022/11/19 04:44:56;;;;;;;9.35;6.55;;;-1.60;99.90;;;;;;5087368;28;20048;-82
2022/11/19 04:47:21;;;;;;;8.82;6.15;;;-1.60;99.90;;;;;;5101206;28;20104;-82
2022/11/19 04:49:47;;;;;;;8.32;5.95;;;-1.50;99.90;;;;;;5083546;28;20091;-83
2022/11/19 04:52:13;;;;;;;9.18;6.32;;;-1.50;99.90;;;;;;5069386;28;20059;-82
2022/11/19 04:54:39;;;;;;;8.30;6.18;;;-1.60;99.90;;;;;;5081497;28;20039;-84
2022/11/19 04:57:06;;;;;;;9.07;6.13;;;-1.60;99.90;;;;;;5084548;28;20043;-82
2022/11/19 04:59:32;;;;;;;8.32;5.72;;;-1.60;99.90;;;;;;5116617;27;20454;-84
2022/11/19 05:01:57;;;;;;;8.02;6.25;;;-1.70;99.90;;;;;;5084043;28;20146;-83
2022/11/19 05:04:23;;;;;;;9.90;5.30;;;-1.60;99.90;;;;;;5081573;28;20071;-83
2022/11/19 05:06:49;;;;;;;8.70;6.38;;;-1.60;99.90;;;;;;5068627;28;20100;-83
2022/11/19 05:09:15;;;;;;;8.32;5.85;;;-1.70;99.90;;;;;;5066616;28;20508;-82
2022/11/19 05:11:41;;;;;;;8.02;5.32;;;-1.70;99.90;;;;;;5069965;28;20040;-83
2022/11/19 05:14:07;;;;;;;8.38;6.10;;;-1.60;99.90;;;;;;5070319;28;20056;-85
2022/11/19 05:16:33;;;;;;;8.85;6.38;;;-1.70;99.90;;;;;;5087933;28;20157;-82
2022/11/19 05:18:59;;;;;;;7.30;5.53;;;-1.70;99.90;;;;;;5089583;28;20093;-85
2022/11/19 05:21:24;;;;;;;10.00;6.70;;;-1.70;99.90;;;;;;5091163;28;20041;-85
2022/11/19 05:23:50;;;;;;;10.32;6.50;;;-1.70;99.90;;;;;;5069009;28;20036;-83
2022/11/19 05:26:16;;;;;;;7.57;5.68;;;-1.70;99.90;;;;;;5111696;27;20043;-81
2022/11/19 05:28:41;;;;;;;9.68;5.93;;;-1.70;99.90;;;;;;5087598;28;20505;-83
2022/11/19 05:31:07;;;;;;;8.82;5.85;;;-1.80;99.90;;;;;;5090656;28;20585;-83
2022/11/19 05:33:34;;;;;;;7.72;5.78;;;-1.70;99.90;;;;;;5081277;28;20047;-84
2022/11/19 05:36:01;;;;;;;7.75;5.53;;;-1.70;99.90;;;;;;5114755;27;20051;-83
2022/11/19 05:38:27;;;;;;;8.60;6.25;;;-1.70;99.90;;;;;;5082997;28;20044;-84
2022/11/19 05:40:52;;;;;;;9.05;6.00;;;-1.70;99.90;;;;;;5069172;28;20051;-84
2022/11/19 05:43:18;;;;;;;7.88;6.00;;;-1.70;99.90;;;;;;5118524;27;20119;-83
2022/11/19 05:45:44;;;;;;;8.90;5.95;;;-1.80;99.90;;;;;;5089926;28;20048;-83
2022/11/19 05:48:10;;;;;;;8.25;5.85;;;-1.80;99.90;;;;;;5065154;28;20982;-83
2022/11/19 05:50:35;;;;;;;8.73;6.38;;;-1.80;99.90;;;;;;5085810;28;20028;-85
2022/11/19 05:53:04;;;;;;;8.70;6.30;;;-1.70;99.90;;;;;;5084375;28;20040;-82
2022/11/19 05:55:30;;;;;;;10.45;6.30;;;-1.70;99.90;;;;;;5062637;28;20036;-84
2022/11/19 05:57:56;;;;;;;9.05;5.78;;;-1.70;99.90;;;;;;5069149;28;22192;-82
2022/11/19 06:00:21;;;;;;;8.88;6.15;;;-1.70;99.90;;;;;;5089905;28;20032;-83
2022/11/19 06:02:47;;;;;;;10.68;6.10;;;-1.70;99.90;;;;;;5080929;28;20041;-85
2022/11/19 06:05:13;;;;;;;9.15;5.90;;;-1.70;99.90;;;;;;5116924;27;20036;-84
2022/11/19 06:07:38;;;;;;;8.25;6.18;;;-1.80;99.90;;;;;;5084147;28;20040;-83
2022/11/19 06:11:00;;;;;;;9.63;6.07;;;-1.80;99.90;;;;;;5066764;28;20040;-83
2022/11/19 06:13:26;;;;;;;8.43;6.38;;;-1.90;99.90;;;;;;5082824;28;20037;-82
2022/11/19 06:15:51;;;;;;;8.55;6.18;;;-1.90;99.90;;;;;;5065955;28;20058;-84
2022/11/19 06:18:17;;;;;;;9.55;6.32;;;-1.90;99.90;;;;;;5072357;28;20204;-84
2022/11/19 06:20:43;;;;;;;7.55;5.88;;;-1.90;99.90;;;;;;5084241;28;20471;-83
2022/11/19 06:23:08;;;;;;;8.20;5.93;;;-1.90;99.90;;;;;;5090184;28;20127;-83
2022/11/19 06:25:34;;;;;;;12.50;6.47;;;-1.90;99.90;;;;;;5074256;28;20044;-82
2022/11/19 06:28:00;;;;;;;8.80;6.15;;;-1.90;99.90;;;;;;5070896;28;20044;-82
2022/11/19 06:30:26;;;;;;;13.82;6.57;;;-1.90;99.90;;;;;;5057502;28;20028;-83
2022/11/19 06:32:52;;;;;;;11.90;6.57;;;-1.90;99.90;;;;;;5102765;28;20135;-83
2022/11/19 06:35:18;;;;;;;10.57;6.78;;;-1.90;99.90;;;;;;5088635;28;20039;-82
2022/11/19 06:37:43;;;;;;;8.50;5.97;;;-1.90;99.90;;;;;;5072067;28;20047;-81
2022/11/19 06:40:11;;;;;;;9.43;6.63;;;-1.90;99.90;;;;;;5086640;28;20039;-82
2022/11/19 06:42:37;;;;;;;8.00;5.75;;;-2.00;99.90;;;;;;5086201;28;20041;-83
2022/11/19 06:45:02;;;;;;;12.27;6.18;;;-1.90;99.90;;;;;;5121077;27;20121;-82
2022/11/19 06:47:30;;;;;;;9.85;6.28;;;-2.00;99.90;;;;;;5072530;28;20113;-84
2022/11/19 06:49:56;;;;;;;10.80;6.47;;;-2.00;99.90;;;;;;5103228;28;20127;-83
2022/11/19 06:52:21;;;;;;;8.52;5.60;;;-2.00;99.90;;;;;;5088590;28;20048;-82
2022/11/19 06:54:47;;;;;;;10.88;6.78;;;-2.00;99.90;;;;;;5087882;28;20094;-81
2022/11/19 06:57:13;;;;;;;9.65;6.82;;;-2.00;99.90;;;;;;5085937;28;20068;-84
2022/11/19 06:59:39;;;;;;;9.05;6.25;;;-2.00;99.90;;;;;;5092176;28;20047;-83
2022/11/19 07:02:05;;;;;;;11.23;6.95;;;-2.00;99.90;;;;;;5064772;28;20098;-85
2022/11/19 07:04:31;;;;;;;7.38;5.00;;;-2.00;99.90;;;;;;5088323;28;20093;-84
2022/11/19 07:06:56;;;;;;;13.23;6.47;;;-2.10;99.90;;;;;;5073836;28;20028;-83
2022/11/19 07:09:22;;;;;;;9.80;6.45;;;-2.00;99.90;;;;;;5077389;28;20048;-82
2022/11/19 07:11:47;;;;;;;12.93;6.35;;;-2.10;99.90;;;;;;5074291;28;20039;-82
2022/11/19 07:14:13;;;;;;;9.15;6.28;;;-2.10;99.90;;;;;;5073477;28;20080;-82
2022/11/19 07:16:39;;;;;;;10.63;6.45;;;-2.10;99.90;;;;;;5091489;28;20091;-84
2022/11/19 07:19:07;;;;;;;9.45;6.55;;;-2.00;99.90;;;;;;5088555;28;20116;-83
2022/11/19 07:21:36;;;;;;;7.97;5.57;;;-2.10;99.90;;;;;;5087692;28;21570;-82
2022/11/19 07:24:44;;;;;;;9.57;6.85;;;-2.00;99.90;;;;;;5103846;27;20119;-82
2022/11/19 07:27:10;;;;;;;8.32;6.30;;;-2.00;99.90;;;;;;5090435;28;20036;-84
2022/11/19 07:29:37;;;;;;;9.82;6.30;;;-2.10;99.90;;;;;;5068658;28;20363;-82
2022/11/19 07:32:06;;;;;;;9.88;6.72;;;-2.00;99.90;;;;;;5085049;28;20126;-83
2022/11/19 07:34:32;;;;;;;8.82;5.85;;;-2.00;99.90;;;;;;5072952;28;20043;-82
2022/11/19 07:36:57;;;;;;;12.20;6.35;;;-2.00;99.90;;;;;;5104717;28;20066;-82
2022/11/19 07:42:54;;;;;;;9.50;6.63;;;-1.80;99.90;;;;;;5089604;28;20169;-84
2022/11/19 07:45:21;;;;;;;9.90;6.95;;;-1.90;99.90;;;;;;5087309;28;20173;-82
2022/11/19 07:47:47;;;;;;;9.93;7.10;;;-1.90;99.90;;;;;;5086840;28;20108;-84
2022/11/19 07:50:13;;;;;;;14.20;6.78;;;-1.90;99.90;;;;;;5069217;28;20036;-83
2022/11/19 07:52:39;;;;;;;10.95;7.32;;;-2.00;99.90;;;;;;5091858;28;20458;-82
2022/11/19 07:55:05;;;;;;;10.38;6.47;;;-1.90;99.90;;;;;;5072856;28;20189;-84
2022/11/19 07:57:31;;;;;;;9.55;7.05;;;-1.90;99.90;;;;;;5073716;28;20062;-85
2022/11/19 08:00:00;;;;;;;10.35;6.75;;;-1.80;99.90;;;;;;5072909;28;20048;-83
2022/11/19 08:02:25;;;;;;;11.40;7.28;;;-1.80;99.90;;;;;;5074237;28;20091;-82
2022/11/19 08:04:51;;;;;;;12.85;7.15;;;-1.80;99.90;;;;;;5072215;28;20048;-80
2022/11/19 08:07:17;;;;;;;10.90;7.13;;;-1.70;99.90;;;;;;5087763;28;20051;-82
2022/11/19 08:09:42;;;;;;;8.73;6.70;;;-1.60;99.90;;;;;;5085456;28;20028;-85
2022/11/19 08:12:08;;;;;;;8.88;6.55;;;-1.70;99.90;;;;;;5065266;28;20115;-84
2022/11/19 08:14:33;;;;;;;9.52;6.72;;;-1.70;99.90;;;;;;5112555;28;20497;-81
2022/11/19 08:19:43;;;;;;;9.63;6.30;;;-1.60;99.90;;;;;;5080721;28;20062;-81
2022/11/19 08:22:12;;;;;;;9.18;6.60;;;-1.50;99.90;;;;;;5079300;28;20048;-84
2022/11/19 08:24:38;;;;;;;10.82;6.65;;;-1.60;99.90;;;;;;5068403;28;20040;-79
2022/11/19 08:27:04;;;;;;;11.90;7.03;;;-1.50;99.90;;;;;;5096297;28;20415;-83
2022/11/19 08:29:30;;;;;;;10.63;7.32;;;-1.50;99.90;;;;;;5068843;28;20472;-83
2022/11/19 08:31:56;;;;;;;10.35;7.07;;;-1.40;99.90;;;;;;5084352;28;20042;-80
2022/11/19 08:34:21;;;;;;;8.50;6.78;;;-1.30;99.90;;;;;;5082433;28;20619;-79
2022/11/19 08:36:47;;;;;;;13.25;7.70;;;-1.30;99.90;;;;;;5074593;28;20554;-84
2022/11/19 08:39:13;;;;;;;9.38;6.60;;;-1.30;99.90;;;;;;5093069;28;20036;-84
2022/11/19 08:44:23;;;;;;;11.23;7.03;;;-1.20;99.90;;;;;;5042131;28;1196342;-83
2022/11/19 08:46:49;;;;;;;9.52;7.20;;;-1.20;99.90;;;;;;5087493;28;20048;-85
2022/11/19 08:49:15;;;;;;;10.95;7.20;;;-1.10;99.90;;;;;;5087460;28;20047;-84
2022/11/19 08:51:40;;;;;;;10.25;6.85;;;-1.10;99.90;;;;;;5086037;28;20475;-82
2022/11/19 08:54:06;;;;;;;11.18;6.63;;;-1.10;99.90;;;;;;5121687;27;20043;-82
2022/11/19 08:56:32;;;;;;;11.75;7.32;;;-1.00;99.90;;;;;;5089728;28;20107;-81
2022/11/19 08:58:58;;;;;;;10.32;7.20;;;-1.00;99.90;;;;;;5087583;28;20467;-80
2022/11/19 09:01:23;;;;;;;9.73;7.22;;;-1.00;99.90;;;;;;5079986;28;20119;-82
2022/11/19 09:03:49;;;;;;;10.85;6.97;;;-0.90;99.90;;;;;;5084015;28;20093;-83
2022/11/19 09:06:15;;;;;;;11.02;6.45;;;-0.90;99.90;;;;;;5118242;27;20082;-80
2022/11/19 09:08:41;;;;;;;11.85;7.28;;;-0.90;99.90;;;;;;5083392;28;20032;-81
2022/11/19 09:11:10;;;;;;;9.55;7.13;;;-0.80;99.90;;;;;;5068667;28;20036;-82
2022/11/19 09:13:36;;;;;;;9.95;6.93;;;-0.80;99.90;;;;;;5089422;28;20074;-82
2022/11/19 09:16:02;;;;;;;9.73;7.38;;;-0.80;99.90;;;;;;5096436;28;20067;-81
2022/11/19 09:18:29;;;;;;;10.25;6.47;;;-0.70;99.90;;;;;;5079154;28;21286;-82
2022/11/19 09:20:55;;;;;;;9.05;6.28;;;-0.70;99.90;;;;;;5091106;28;20544;-80
2022/11/19 09:23:23;;;;;;;8.82;6.30;;;-0.70;99.90;;;;;;5077211;28;20079;-81
2022/11/19 09:25:58;;;;;;;10.45;6.93;;;-0.60;99.90;;;;;;5124494;27;20080;-83
2022/11/19 09:28:25;;;;;;;10.45;7.13;;;-0.60;99.90;;;;;;5069813;28;20643;-78
2022/11/19 09:30:58;;;;;;;11.77;6.93;;;-0.50;99.90;;;;;;5066103;28;20100;-81
2022/11/19 09:33:25;;;;;;;11.25;6.45;;;-0.50;99.90;;;;;;5087119;28;20047;-79
2022/11/19 09:35:50;;;;;;;10.65;7.03;;;-0.40;99.90;;;;;;5089619;28;20138;-79
2022/11/19 09:38:16;;;;;;;10.85;6.50;;;-0.40;99.90;;;;;;5073293;28;20134;-80
2022/11/19 09:40:46;;;;;;;8.90;6.88;;;-0.30;99.90;;;;;;5081232;28;20397;-79
2022/11/19 09:43:36;;;;;;;8.00;6.30;;;-0.40;99.90;;;;;;5079618;28;20137;-83
2022/11/19 09:46:06;;;;;;;8.73;6.03;;;-0.20;99.90;;;;;;5113139;27;20392;-83
2022/11/19 09:48:36;;;;;;;10.38;7.18;;;-0.20;99.90;;;;;;5080208;28;20051;-85
2022/11/19 09:51:13;;;;;;;8.43;6.70;;;-0.10;99.90;;;;;;5083696;28;20049;-86
2022/11/19 09:53:48;;;;;;;9.93;6.95;;;0.00;99.90;;;;;;5077250;28;20104;-83
2022/11/19 09:56:22;;;;;;;8.13;6.32;;;0.00;99.90;;;;;;5081272;28;20060;-80
2022/11/19 09:58:48;;;;;;;8.10;6.53;;;0.10;99.90;;;;;;5070459;28;20082;-80
2022/11/19 10:01:16;;;;;;;11.05;6.80;;;0.00;99.90;;;;;;5083390;28;20666;-79
2022/11/19 10:03:50;;;;;;;10.63;7.07;;;0.10;99.90;;;;;;5083788;28;20507;-82
2022/11/19 10:06:35;;;;;;;9.70;6.68;;;0.10;99.90;;;;;;5081994;28;20163;-84
2022/11/19 10:09:28;;;;;;;8.40;6.53;;;0.20;99.90;;;;;;5081736;28;20205;-82
2022/11/19 10:12:12;;;;;;;9.98;6.50;;;0.20;99.90;;;;;;5081673;28;20294;-83
2022/11/19 10:14:51;;;;;;;10.47;6.70;;;0.30;99.90;;;;;;5066728;28;20048;-81
2022/11/19 10:17:29;;;;;;;8.70;6.03;;;0.40;99.90;;;;;;5084605;28;20183;-82
2022/11/19 10:20:14;;;;;;;9.35;6.18;;;0.40;99.90;;;;;;5079195;28;20055;-82
2022/11/19 10:23:15;;;;;;;8.27;6.50;;;0.40;99.90;;;;;;5076979;28;20044;-80
2022/11/19 10:25:48;;;;;;;8.27;6.50;;;0.50;99.90;;;;;;5082013;28;20109;-78
2022/11/19 10:28:28;;;;;;;9.20;6.45;;;0.60;99.90;;;;;;5066406;28;20048;-81
2022/11/19 10:31:05;;;;;;;8.90;6.22;;;0.60;99.90;;;;;;5120575;27;20432;-78
2022/11/19 10:33:48;;;;;;;10.13;6.50;;;0.70;99.90;;;;;;5060024;28;20089;-82
2022/11/19 10:36:26;;;;;;;9.13;6.30;;;0.70;99.90;;;;;;5090472;28;20036;-79
2022/11/19 10:39:07;;;;;;;9.43;6.15;;;0.80;99.90;;;;;;5090068;28;20390;-78
2022/11/19 10:41:41;;;;;;;8.93;6.32;;;0.80;99.90;;;;;;5061360;28;20051;-80
2022/11/19 10:44:39;;;;;;;7.88;6.03;;;0.90;99.90;;;;;;5090258;28;20052;-81
2022/11/19 10:47:19;;;;;;;7.57;5.57;;;1.00;99.90;;;;;;5072509;28;20492;-80
2022/11/19 10:49:49;;;;;;;11.65;6.13;;;1.10;99.90;;;;;;5089464;28;20078;-81
2022/11/19 10:52:23;;;;;;;8.60;6.22;;;1.00;99.90;;;;;;5089230;28;20123;-80
2022/11/19 10:55:01;;;;;;;9.38;5.70;;;1.20;99.90;;;;;;5071177;28;20545;-81
2022/11/19 10:57:30;;;;;;;6.38;5.15;;;1.20;99.90;;;;;;5089611;28;20048;-82
2022/11/19 10:59:56;;;;;;;7.97;5.28;;;1.30;99.90;;;;;;5087397;28;20147;-80
2022/11/19 11:02:29;;;;;;;8.43;5.22;;;1.40;99.90;;;;;;5089900;28;20048;-83
2022/11/19 11:05:01;;;;;;;11.63;5.68;;;1.30;99.90;;;;;;5062807;28;20059;-84
2022/11/19 11:07:56;;;;;;;5.70;4.78;;;1.40;99.90;;;;;;5105232;28;20099;-83
2022/11/19 11:10:50;;;;;;;7.18;4.88;;;1.40;99.90;;;;;;5073293;28;20136;-80
2022/11/19 11:16:45;;;;;;;7.18;5.00;;;1.50;99.90;;;;;;5095233;28;20047;-79
2022/11/19 11:19:20;;;;;;;6.85;4.22;;;1.60;99.90;;;;;;5081692;28;20043;-79
2022/11/19 11:21:52;;;;;;;6.55;4.72;;;1.70;99.90;;;;;;5081162;28;20040;-80
2022/11/19 11:24:18;;;;;;;6.95;5.00;;;1.60;99.90;;;;;;5075073;28;20044;-80
2022/11/19 11:26:44;;;;;;;5.72;4.30;;;1.80;99.90;;;;;;5091537;28;20050;-78
2022/11/19 11:29:12;;;;;;;5.35;4.18;;;1.80;99.90;;;;;;5091490;28;20115;-81
2022/11/19 11:31:43;;;;;;;5.05;4.05;;;1.80;99.90;;;;;;5065039;28;20048;-83
2022/11/19 11:34:25;;;;;;;7.05;4.32;;;1.90;99.90;;;;;;5081491;28;20090;-79
2022/11/19 11:36:52;;;;;;;6.40;4.70;;;1.90;99.90;;;;;;5074917;28;20047;-79
2022/11/19 11:39:31;;;;;;;6.60;4.55;;;1.90;99.90;;;;;;5089415;28;20044;-80
2022/11/19 11:42:00;;;;;;;6.45;4.35;;;1.90;99.90;;;;;;5080433;28;20096;-83
2022/11/19 11:44:29;;;;;;;8.40;4.72;;;2.00;99.90;;;;;;5083725;28;20092;-82
2022/11/19 11:47:16;;;;;;;6.35;4.07;;;2.00;99.90;;;;;;5067475;28;20071;-82
2022/11/19 11:49:48;;;;;;;6.22;4.28;;;2.10;99.90;;;;;;5114161;27;20781;-79
2022/11/19 11:52:40;;;;;;;6.72;4.30;;;2.20;99.90;;;;;;5068961;28;20317;-82
2022/11/19 11:55:30;;;;;;;5.05;4.00;;;2.30;99.90;;;;;;5100664;28;20047;-80
2022/11/19 11:57:57;;;;;;;10.60;4.60;;;2.30;99.90;;;;;;5084636;28;20536;-82
2022/11/19 12:00:31;;;;;;;6.18;3.95;;;2.30;99.90;;;;;;5071119;28;20040;-83
2022/11/19 12:03:06;;;;;;;5.35;4.00;;;2.40;99.90;;;;;;5091454;28;20051;-83
2022/11/19 12:05:50;;;;;;;;;;;2.30;99.90;;;;;;5125326;27;21244;-81
2022/11/19 12:08:25;;;;;;;6.07;4.35;;;2.40;99.90;;;;;;5088839;28;20259;-81
2022/11/19 12:10:58;;;;;;;5.00;4.15;;;2.40;99.90;;;;;;5076793;28;20043;-81
2022/11/19 12:13:44;;;;;;;5.82;4.32;;;2.40;99.90;;;;;;5089107;28;20075;-83
2022/11/19 12:16:34;;;;;;;6.75;4.15;;;2.30;99.90;;;;;;5070087;28;20044;-83
2022/11/19 12:19:28;;;;;;;5.88;4.28;;;2.40;99.90;;;;;;5060997;28;20144;-82
2022/11/19 12:22:26;;;;;;;5.35;3.90;;;2.50;99.90;;;;;;5063630;28;20119;-81
2022/11/19 12:25:19;;;;;;;5.30;4.15;;;2.50;99.90;;;;;;5061167;28;20070;-86
2022/11/19 12:27:57;;;;;;;8.90;3.95;;;2.50;99.90;;;;;;5074501;28;20113;-82
2022/11/19 12:30:29;;;;;;;5.63;4.10;;;2.50;99.90;;;;;;5091138;28;20036;-84
2022/11/19 12:33:21;;;;;;;5.40;4.18;;;2.60;99.90;;;;;;5089380;28;20048;-82
2022/11/19 12:35:53;;;;;;;8.70;4.13;;;2.60;99.90;;;;;;5070536;28;20061;-81
2022/11/19 12:38:56;;;;;;;8.18;4.05;;;2.60;99.90;;;;;;5069044;28;20044;-81
2022/11/19 12:41:36;;;;;;;5.47;3.83;;;2.70;99.90;;;;;;5101686;28;20496;-82
2022/11/19 12:44:27;;;;;;;6.57;3.90;;;2.80;99.90;;;;;;5116845;27;20571;-83
2022/11/19 12:47:01;;;;;;;6.40;4.18;;;2.70;99.90;;;;;;5084168;28;20116;-83
2022/11/19 12:49:32;;;;;;;5.07;3.80;;;2.70;99.90;;;;;;5090382;28;20036;-81
2022/11/19 12:52:19;;;;;;;8.13;4.40;;;2.80;99.90;;;;;;5083446;28;20487;-79
2022/11/19 12:55:03;;;;;;;7.63;5.07;;;2.60;99.90;;;;;;5116218;27;20126;-80
2022/11/19 12:58:12;;;;;;;5.68;4.30;;;2.60;99.90;;;;;;5085628;28;20074;-83
2022/11/19 13:00:49;;;;;;;9.20;5.20;;;2.50;99.90;;;;;;5043180;28;20072;-80
2022/11/19 13:03:21;;;;;;;7.57;4.85;;;2.50;99.90;;;;;;5052597;28;20127;-82
2022/11/19 13:05:52;;;;;;;7.97;4.53;;;2.50;99.90;;;;;;5047409;28;20562;-82
2022/11/19 13:08:21;;;;;;;8.40;4.90;;;2.70;99.90;;;;;;5048244;28;20029;-81
2022/11/19 13:10:51;;;;;;;6.45;4.70;;;2.60;99.90;;;;;;5050291;28;20860;-81
2022/11/19 13:13:24;;;;;;;6.30;4.22;;;2.70;99.90;;;;;;5051788;28;21084;-79
2022/11/19 13:16:01;;;;;;;6.47;4.72;;;2.70;99.90;;;;;;5068614;28;20041;-80
2022/11/19 13:18:30;;;;;;;6.63;4.40;;;2.80;99.90;;;;;;5066590;28;20455;-83
2022/11/19 13:21:04;;;;;;;8.38;5.00;;;2.80;99.90;;;;;;5049908;28;20043;-81
2022/11/19 13:23:40;;;;;;;6.40;4.53;;;2.70;99.90;;;;;;5048901;28;20037;-87
2022/11/19 13:26:13;;;;;;;6.05;4.47;;;2.70;99.90;;;;;;5058104;28;20081;-83
2022/11/19 13:28:47;;;;;;;5.88;4.75;;;2.60;99.90;;;;;;5033310;28;20455;-83
2022/11/19 13:31:27;;;;;;;7.47;4.50;;;2.70;99.90;;;;;;5015150;28;20122;-86
2022/11/19 13:34:18;;;;;;;7.57;4.60;;;2.70;99.90;;;;;;5016855;28;20045;-85
2022/11/19 13:36:58;;;;;;;5.43;4.35;;;2.70;99.90;;;;;;5042937;28;20399;-87
2022/11/19 13:39:32;;;;;;;6.22;4.45;;;2.70;99.90;;;;;;5072644;28;20032;-84
2022/11/19 13:44:44;;;;;;;5.25;4.03;;;2.60;99.90;;;;;;5086671;28;20452;-84
2022/11/19 13:47:25;;;;;;;6.43;4.50;;;2.60;99.90;;;;;;5090830;28;20131;-82